Terminal Aerodrome Forecast
Issued by NWS North Platte, NE

Home | Current Version | Previous Version | Text Only | Print | Product List | Glossary On
Versions: 1 2 3 4 5 6 7 8 9 10 11
000
FTUS43 KLBF 261120
TAFLBF
TAF
KLBF 261120Z 2612/2712 15007KT P6SM FEW200
     FM262100 15012KT P6SM SCT200
     FM270000 14010KT P6SM FEW070 BKN200
      TEMPO 2703/2706 5SM TSRA BKN060CB BKN120
     FM270600 16007KT P6SM SCT070 BKN200 PROB30 2706/2710 5SM TSRA
      BKN060CB=

USA.gov is the U.S. government's official web portal to all federal, state and local government web resources and services.